METAR Data
IDs: Format: Raw Decoded Include TAF

Data at: 0707 UTC 01 Aug 2021

ETHB 010620Z AUTO 24005KT 9999 // ////// 16/13 Q1008 ///